Portada
METAR-TAF:

METAR-TAF

Aeroports :

South St. Paul Municipal Airport (Richard E. Fleming Field)

South St. Paul, Minnesota, Estats Units d'Amèrica

latitud: 44-51-26N, longitud: 093-01-58W, altitud: 250 m

Observació

L'informe es va fer fa 18 minuts, a les 18:15 UTC
Vent 6 kt del Sud/Sud-Oest
Temperatura 28°C
Humitat 58%
Pressió 1008 hPa
Visibilitat: 16.1 km
Cel clar

METAR: KSGS 251815Z AUTO 21006KT 10SM CLR 28/19 A2976 RMK AO2 T02770194

Hora: 13:33 (18:33 UTC)


TAF: manca

Observacions i pronòstics meteorològics de més de 4000 aeroports (METAR i TAF).

Les estacions disponibles són els punts grocs i vermells al mapa.

Posi el ratolí al punt desitjat per veure el nom de l'estació.

Feu clic per veure les observacions i els pronòstics meteorològics.

Per canviar el mapa: feu clic els botons verds amb una creu de color negre per apropar; al botó verd amb un guió per allunyar la imatge; o en les fletxes verdes per a mapes adjacents.


METAR-TAF: